createdAt,value
2019-02-05T00:02:09.993Z,0.53
2019-02-05T00:04:40.997Z,0.54
2019-02-05T00:07:11.949Z,0.53
2019-02-05T00:09:43.231Z,0.54
2019-02-05T00:12:14.118Z,0.54
2019-02-05T00:14:45.103Z,0.51
2019-02-05T00:17:16.100Z,0.51
2019-02-05T00:19:47.196Z,0.50
2019-02-05T00:22:18.086Z,0.39
2019-02-05T00:24:48.988Z,0.32
2019-02-05T00:27:19.855Z,0.28
2019-02-05T00:29:50.952Z,0.26
2019-02-05T00:32:21.850Z,0.27
2019-02-05T00:34:53.011Z,0.25
2019-02-05T00:37:24.137Z,0.19
2019-02-05T00:39:55.207Z,0.20
2019-02-05T00:42:26.105Z,0.17
2019-02-05T00:44:57.295Z,0.18
2019-02-05T00:47:28.076Z,0.07
2019-02-05T00:49:59.085Z,-0.02
2019-02-05T00:52:29.873Z,0.04
2019-02-05T00:55:00.885Z,-0.01
2019-02-05T00:57:31.828Z,0.05
2019-02-05T01:00:02.878Z,0.00
2019-02-05T01:02:34.631Z,-0.06
2019-02-05T01:05:06.152Z,0.00
2019-02-05T01:07:36.921Z,0.12
2019-02-05T01:10:08.523Z,0.17
2019-02-05T01:12:39.426Z,0.09
2019-02-05T01:15:12.609Z,0.14
2019-02-05T01:17:43.556Z,0.15
2019-02-05T01:20:16.680Z,0.20
2019-02-05T01:22:48.382Z,0.14
2019-02-05T01:25:19.861Z,0.12
2019-02-05T01:27:51.491Z,0.13
2019-02-05T01:30:24.412Z,0.13
2019-02-05T01:32:55.437Z,0.12
2019-02-05T01:35:26.518Z,-0.02
2019-02-05T01:37:57.521Z,-0.02
2019-02-05T01:40:28.823Z,0.05
2019-02-05T01:42:59.686Z,0.01
2019-02-05T01:45:30.674Z,-0.04
2019-02-05T01:48:01.382Z,-0.13
2019-02-05T01:50:33.056Z,-0.12
2019-02-05T01:53:04.749Z,-0.18
2019-02-05T01:55:35.770Z,-0.27
2019-02-05T01:58:06.545Z,-0.48
2019-02-05T02:00:39.655Z,-0.47
2019-02-05T02:03:10.586Z,-0.47
2019-02-05T02:05:42.291Z,-0.52
2019-02-05T02:08:13.482Z,-0.47
2019-02-05T02:10:44.624Z,-0.44
2019-02-05T02:13:15.478Z,-0.53
2019-02-05T02:15:46.754Z,-0.74
2019-02-05T02:18:17.454Z,-0.74
2019-02-05T02:20:48.433Z,-0.66
2019-02-05T02:23:19.228Z,-0.69
2019-02-05T02:25:50.495Z,-0.66
2019-02-05T02:28:21.393Z,-0.59
2019-02-05T02:30:52.300Z,-0.58
2019-02-05T02:33:23.174Z,-0.63
2019-02-05T02:35:54.178Z,-0.65
2019-02-05T02:38:25.064Z,-0.80
2019-02-05T02:40:56.045Z,-0.90
2019-02-05T02:43:26.936Z,-0.92
2019-02-05T02:45:58.249Z,-0.96
2019-02-05T02:48:29.116Z,-0.95
2019-02-05T02:51:00.130Z,-0.91
2019-02-05T02:53:30.989Z,-0.90
2019-02-05T02:56:02.002Z,-1.00
2019-02-05T02:58:33.185Z,-1.01
2019-02-05T03:01:04.274Z,-0.95
2019-02-05T03:03:35.153Z,-1.04
2019-02-05T03:06:06.262Z,-1.04
2019-02-05T03:08:37.124Z,-1.08
2019-02-05T03:11:08.269Z,-1.04
2019-02-05T03:13:40.244Z,-1.12
2019-02-05T03:16:11.320Z,-1.14
2019-02-05T03:18:42.232Z,-1.07
2019-02-05T03:21:13.122Z,-1.03
2019-02-05T03:23:44.008Z,-1.03
2019-02-05T03:26:14.885Z,-1.04
2019-02-05T03:28:45.975Z,-1.00
2019-02-05T03:31:17.083Z,-0.97
2019-02-05T03:33:48.253Z,-0.89
2019-02-05T03:36:19.340Z,-0.88
2019-02-05T03:38:50.252Z,-0.96
2019-02-05T03:41:21.249Z,-0.99
2019-02-05T03:43:52.531Z,-1.14
2019-02-05T03:46:23.946Z,-1.32
2019-02-05T03:48:55.217Z,-1.37
2019-02-05T03:51:47.260Z,-1.34
2019-02-05T03:55:07.963Z,-1.32
2019-02-05T03:58:26.210Z,-1.39
2019-02-05T04:01:35.159Z,-1.60
2019-02-05T04:04:52.779Z,-1.59
2019-02-05T04:08:03.869Z,-1.68
2019-02-05T04:11:25.759Z,-1.59
2019-02-05T04:15:07.691Z,-1.57
2019-02-05T04:18:11.131Z,-1.60
2019-02-05T04:21:10.398Z,-1.56
2019-02-05T04:24:07.806Z,-1.56
2019-02-05T04:27:21.289Z,-1.66
2019-02-05T04:30:35.760Z,-1.67
2019-02-05T04:33:22.781Z,-1.58
2019-02-05T04:36:41.421Z,-1.50
2019-02-05T04:39:36.617Z,-1.43
2019-02-05T04:42:37.161Z,-1.39
2019-02-05T04:45:39.984Z,-1.44
2019-02-05T04:48:32.491Z,-1.46
2019-02-05T04:51:35.482Z,-1.52
2019-02-05T04:54:26.025Z,-1.69
2019-02-05T04:57:35.320Z,-1.69
2019-02-05T05:00:47.657Z,-1.62
2019-02-05T05:03:50.222Z,-1.56
2019-02-05T05:06:57.398Z,-1.45
2019-02-05T05:10:02.139Z,-1.41
2019-02-05T05:12:33.133Z,-1.42
2019-02-05T05:15:05.404Z,-1.54
2019-02-05T05:17:36.332Z,-1.63
2019-02-05T05:20:09.265Z,-1.66
2019-02-05T05:22:40.273Z,-1.71
2019-02-05T05:25:12.174Z,-1.67
2019-02-05T05:27:44.290Z,-1.72
2019-02-05T05:30:18.441Z,-1.87
2019-02-05T05:32:49.531Z,-1.96
2019-02-05T05:35:20.434Z,-1.92
2019-02-05T05:37:51.899Z,-1.94
2019-02-05T05:40:22.721Z,-1.95
2019-02-05T05:42:53.608Z,-1.94
2019-02-05T05:45:24.396Z,-1.87
2019-02-05T05:47:55.362Z,-1.84
2019-02-05T05:50:26.277Z,-1.89
2019-02-05T05:52:56.838Z,-1.87
2019-02-05T05:55:27.845Z,-1.75
2019-02-05T05:57:58.767Z,-1.83
2019-02-05T06:00:29.804Z,-1.88
2019-02-05T06:03:00.706Z,-1.86
2019-02-05T06:05:31.907Z,-1.86
2019-02-05T06:08:02.821Z,-1.87
2019-02-05T06:10:33.826Z,-1.93
2019-02-05T06:13:05.105Z,-1.89
2019-02-05T06:15:36.176Z,-1.88
2019-02-05T06:18:07.238Z,-1.93
2019-02-05T06:20:38.445Z,-1.97
2019-02-05T06:23:09.582Z,-1.97
2019-02-05T06:25:43.032Z,-1.93
2019-02-05T06:28:13.820Z,-1.88
2019-02-05T06:30:44.981Z,-2.01
2019-02-05T06:33:16.221Z,-2.08
2019-02-05T06:35:47.109Z,-2.07
2019-02-05T06:38:18.086Z,-2.07
2019-02-05T06:40:49.217Z,-2.06
2019-02-05T06:43:20.235Z,-2.08
2019-02-05T06:45:51.446Z,-2.20
2019-02-05T06:48:22.555Z,-2.23
2019-02-05T06:50:53.543Z,-2.11
2019-02-05T06:53:24.640Z,-2.07
2019-02-05T06:55:55.523Z,-1.99
2019-02-05T06:58:26.413Z,-1.98
2019-02-05T07:00:57.704Z,-2.06
2019-02-05T07:03:28.716Z,-2.08
2019-02-05T07:05:59.599Z,-1.99
2019-02-05T07:08:30.467Z,-1.97
2019-02-05T07:11:01.392Z,-1.91
2019-02-05T07:13:32.364Z,-1.91
2019-02-05T07:16:03.731Z,-1.90
2019-02-05T07:18:34.537Z,-1.91
2019-02-05T07:21:05.541Z,-1.90
2019-02-05T07:23:36.528Z,-1.91
2019-02-05T07:26:08.309Z,-1.89
2019-02-05T07:28:39.215Z,-1.84
2019-02-05T07:31:10.301Z,-1.81
2019-02-05T07:33:41.209Z,-1.82
2019-02-05T07:36:12.212Z,-1.80
2019-02-05T07:38:43.072Z,-1.77
2019-02-05T07:41:14.258Z,-1.75
2019-02-05T07:43:45.151Z,-1.74
2019-02-05T07:46:16.401Z,-1.71
2019-02-05T07:48:47.338Z,-1.75
2019-02-05T07:51:18.416Z,-1.69
2019-02-05T07:53:49.417Z,-1.59
2019-02-05T07:56:21.138Z,-1.58
2019-02-05T07:58:52.008Z,-1.57
2019-02-05T08:01:23.261Z,-1.55
2019-02-05T08:03:55.121Z,-1.45
2019-02-05T08:06:26.731Z,-1.37
2019-02-05T08:08:57.509Z,-1.39
2019-02-05T08:11:28.389Z,-1.32
2019-02-05T08:13:59.603Z,-1.27
2019-02-05T08:16:30.614Z,-1.22
2019-02-05T08:19:01.563Z,-1.21
2019-02-05T08:21:32.610Z,-1.20
2019-02-05T08:24:03.658Z,-1.23
2019-02-05T08:26:34.828Z,-1.17
2019-02-05T08:29:06.360Z,-1.05
2019-02-05T08:31:37.352Z,-0.96
2019-02-05T08:34:08.344Z,-0.89
2019-02-05T08:36:39.307Z,-0.88
2019-02-05T08:39:11.120Z,-0.77
2019-02-05T08:41:42.148Z,-0.70
2019-02-05T08:44:13.358Z,-0.70
2019-02-05T08:46:44.222Z,-0.61
2019-02-05T08:49:15.190Z,-0.57
2019-02-05T08:51:46.170Z,-0.52
2019-02-05T08:54:16.980Z,-0.45
2019-02-05T08:56:47.949Z,-0.47
2019-02-05T08:59:19.269Z,-0.46
2019-02-05T09:01:50.649Z,-0.40
2019-02-05T09:04:21.532Z,-0.23
2019-02-05T09:06:52.429Z,-0.20
2019-02-05T09:09:23.323Z,-0.08
2019-02-05T09:11:54.316Z,-0.02
2019-02-05T09:14:25.496Z,0.19
2019-02-05T09:16:56.649Z,0.26
2019-02-05T09:19:27.494Z,0.29
2019-02-05T09:21:58.384Z,0.39
2019-02-05T09:24:29.250Z,0.49
2019-02-05T09:27:00.258Z,0.56
2019-02-05T09:29:33.395Z,0.59
2019-02-05T09:32:03.775Z,0.68
2019-02-05T09:34:34.558Z,0.79
2019-02-05T09:37:05.684Z,0.85
2019-02-05T09:39:36.729Z,0.88
2019-02-05T09:42:08.043Z,0.98
2019-02-05T09:44:38.899Z,0.99
2019-02-05T09:47:09.872Z,1.07
2019-02-05T09:49:40.702Z,1.16
2019-02-05T09:52:11.691Z,1.16
2019-02-05T09:54:42.574Z,1.25
2019-02-05T09:57:13.859Z,1.35
2019-02-05T09:59:45.770Z,1.33
2019-02-05T10:02:16.813Z,1.47
2019-02-05T10:04:47.755Z,1.45
2019-02-05T10:07:18.681Z,1.53
2019-02-05T10:09:49.642Z,1.79
2019-02-05T10:12:20.645Z,1.73
2019-02-05T10:14:51.297Z,1.78
2019-02-05T10:17:22.575Z,1.87
2019-02-05T10:19:53.472Z,1.81
2019-02-05T10:22:24.502Z,1.90
2019-02-05T10:24:55.455Z,2.00
2019-02-05T10:27:26.426Z,2.10
2019-02-05T10:29:59.581Z,2.07
2019-02-05T10:32:29.874Z,2.00
2019-02-05T10:35:00.662Z,2.00
2019-02-05T10:37:33.074Z,2.10
2019-02-05T10:40:04.358Z,2.07
2019-02-05T10:42:35.379Z,2.18
2019-02-05T10:45:08.222Z,2.26
2019-02-05T10:47:40.531Z,2.27
2019-02-05T10:50:13.249Z,2.36
2019-02-05T10:52:44.556Z,2.53
2019-02-05T10:55:16.715Z,2.43
2019-02-05T10:57:47.971Z,2.46
2019-02-05T11:00:21.012Z,2.64
2019-02-05T11:02:52.114Z,2.67
2019-02-05T11:05:24.616Z,2.64
2019-02-05T11:07:55.598Z,2.58
2019-02-05T11:10:26.492Z,2.68
2019-02-05T11:12:57.406Z,2.79
2019-02-05T11:15:30.389Z,2.77
2019-02-05T11:18:02.430Z,2.90
2019-02-05T11:20:33.523Z,2.86
2019-02-05T11:23:04.934Z,2.89
2019-02-05T11:25:36.950Z,2.91
2019-02-05T11:28:07.940Z,3.12
2019-02-05T11:30:44.106Z,3.04
2019-02-05T11:33:15.451Z,3.25
2019-02-05T11:35:47.360Z,3.26
2019-02-05T11:38:18.621Z,3.24
2019-02-05T11:40:49.547Z,3.43
2019-02-05T11:43:20.683Z,3.50
2019-02-05T11:45:51.631Z,3.48
2019-02-05T11:48:22.914Z,3.43
2019-02-05T11:50:53.791Z,3.53
2019-02-05T11:53:24.915Z,3.61
2019-02-05T11:55:55.995Z,3.72
2019-02-05T11:58:27.742Z,3.77
2019-02-05T12:01:06.640Z,3.87
2019-02-05T12:03:37.649Z,3.94
2019-02-05T12:06:08.660Z,3.89
2019-02-05T12:08:40.027Z,3.94
2019-02-05T12:11:10.947Z,3.95
2019-02-05T12:13:41.837Z,4.01
2019-02-05T12:16:12.722Z,4.04
2019-02-05T12:18:43.491Z,4.13
2019-02-05T12:21:14.379Z,4.20
2019-02-05T12:23:45.384Z,4.19
2019-02-05T12:26:16.377Z,4.29
2019-02-05T12:28:47.268Z,4.26
2019-02-05T12:31:18.148Z,4.24
2019-02-05T12:33:49.262Z,4.21
2019-02-05T12:36:20.111Z,4.23
2019-02-05T12:38:51.118Z,4.34
2019-02-05T12:41:21.906Z,4.42
2019-02-05T12:43:53.292Z,4.44
2019-02-05T12:46:24.173Z,4.51
2019-02-05T12:48:55.258Z,4.60
2019-02-05T12:51:26.148Z,4.50
2019-02-05T12:53:57.164Z,4.48
2019-02-05T12:56:28.327Z,4.53
2019-02-05T12:59:00.074Z,4.58
2019-02-05T13:01:30.930Z,4.65
2019-02-05T13:04:01.927Z,4.69
2019-02-05T13:06:32.828Z,4.60
2019-02-05T13:09:05.359Z,4.64
2019-02-05T13:11:36.635Z,4.62
2019-02-05T13:14:07.819Z,4.66
2019-02-05T13:16:38.821Z,4.58
2019-02-05T13:19:09.824Z,4.58
2019-02-05T13:21:40.713Z,4.58
2019-02-05T13:24:11.966Z,4.47
2019-02-05T13:26:42.896Z,4.58
2019-02-05T13:29:13.772Z,4.67
2019-02-05T13:31:44.651Z,4.74
2019-02-05T13:34:15.762Z,4.77
2019-02-05T13:36:46.735Z,4.94
2019-02-05T13:39:17.725Z,4.97
2019-02-05T13:41:48.610Z,4.95
2019-02-05T13:44:19.623Z,4.94
2019-02-05T13:46:52.314Z,4.97
2019-02-05T13:49:22.700Z,5.03
2019-02-05T13:51:53.360Z,5.07
2019-02-05T13:54:24.030Z,5.06
2019-02-05T13:56:54.862Z,4.95
2019-02-05T13:59:25.857Z,4.96
2019-02-05T14:01:56.395Z,5.01
2019-02-05T14:04:27.011Z,5.00
2019-02-05T14:06:57.700Z,5.04
2019-02-05T14:09:28.635Z,4.98
2019-02-05T14:11:59.472Z,5.04
2019-02-05T14:14:30.733Z,4.91
2019-02-05T14:17:01.772Z,5.00
2019-02-05T14:19:32.937Z,5.09
2019-02-05T14:22:03.934Z,4.98
2019-02-05T14:24:34.968Z,4.95
2019-02-05T14:27:06.222Z,5.00
2019-02-05T14:29:38.243Z,4.99
2019-02-05T14:32:09.018Z,4.98
2019-02-05T14:34:40.016Z,5.12
2019-02-05T14:37:12.017Z,5.20
2019-02-05T14:39:44.127Z,5.16
2019-02-05T14:42:15.358Z,5.21
2019-02-05T14:44:46.323Z,5.26
2019-02-05T14:47:17.211Z,5.35
2019-02-05T14:49:48.281Z,5.28
2019-02-05T14:52:19.217Z,5.27
2019-02-05T14:54:50.177Z,5.17
2019-02-05T14:57:20.987Z,5.06
2019-02-05T14:59:51.995Z,4.92
2019-02-05T15:02:23.054Z,4.80
2019-02-05T15:04:54.514Z,4.68
2019-02-05T15:07:25.620Z,4.74
2019-02-05T15:09:56.590Z,4.63
2019-02-05T15:12:27.440Z,4.59
2019-02-05T15:14:58.431Z,4.49
2019-02-05T15:17:29.318Z,4.40
2019-02-05T15:20:00.341Z,4.30
2019-02-05T15:22:31.489Z,4.23
2019-02-05T15:25:02.395Z,4.23
2019-02-05T15:27:33.569Z,4.19
2019-02-05T15:30:06.091Z,4.07
2019-02-05T15:32:52.429Z,4.05
2019-02-05T15:35:23.757Z,4.03
2019-02-05T15:37:54.622Z,3.99
2019-02-05T15:40:25.718Z,3.94
2019-02-05T15:42:57.646Z,3.86
2019-02-05T15:45:29.060Z,3.84
2019-02-05T15:48:00.040Z,3.83
2019-02-05T15:50:30.915Z,3.82
2019-02-05T15:53:01.796Z,3.77
2019-02-05T15:55:32.862Z,3.73
2019-02-05T15:58:04.506Z,3.66
2019-02-05T16:00:35.594Z,3.61
2019-02-05T16:03:07.332Z,3.55
2019-02-05T16:05:38.391Z,3.46
2019-02-05T16:08:09.374Z,3.40
2019-02-05T16:10:40.804Z,3.36
2019-02-05T16:13:11.655Z,3.26
2019-02-05T16:15:42.564Z,3.24
2019-02-05T16:18:13.435Z,3.17
2019-02-05T16:20:44.443Z,3.12
2019-02-05T16:23:15.328Z,3.09
2019-02-05T16:25:46.322Z,3.02
2019-02-05T16:28:17.399Z,2.98
2019-02-05T16:30:48.385Z,2.93
2019-02-05T16:33:19.163Z,2.86
2019-02-05T16:35:50.316Z,2.80
2019-02-05T16:38:21.502Z,2.72
2019-02-05T16:40:52.788Z,2.72
2019-02-05T16:43:23.655Z,2.67
2019-02-05T16:45:54.839Z,2.58
2019-02-05T16:48:25.731Z,2.54
2019-02-05T16:50:56.977Z,2.50
2019-02-05T16:53:27.934Z,2.47
2019-02-05T16:55:59.158Z,2.46
2019-02-05T16:58:30.088Z,2.38
2019-02-05T17:01:01.848Z,2.34
2019-02-05T17:03:32.814Z,2.32
2019-02-05T17:06:03.887Z,2.29
2019-02-05T17:08:34.889Z,2.28
2019-02-05T17:11:06.010Z,2.25
2019-02-05T17:13:36.870Z,2.18
2019-02-05T17:16:07.902Z,2.16
2019-02-05T17:18:38.745Z,2.12
2019-02-05T17:21:09.743Z,2.04
2019-02-05T17:23:40.626Z,2.00
2019-02-05T17:26:11.607Z,1.94
2019-02-05T17:28:42.482Z,1.87
2019-02-05T17:31:13.677Z,1.88
2019-02-05T17:33:44.580Z,1.91
2019-02-05T17:36:15.660Z,1.90
2019-02-05T17:38:46.540Z,1.78
2019-02-05T17:41:17.532Z,1.74
2019-02-05T17:43:50.478Z,1.68
2019-02-05T17:46:21.616Z,1.60
2019-02-05T17:48:52.575Z,1.62
2019-02-05T17:51:23.576Z,1.58
2019-02-05T17:53:54.728Z,1.58
2019-02-05T17:56:25.681Z,1.56
2019-02-05T17:58:56.732Z,1.42
2019-02-05T18:01:28.108Z,1.39
2019-02-05T18:03:58.664Z,1.36
2019-02-05T18:06:29.371Z,1.29
2019-02-05T18:08:59.922Z,1.39
2019-02-05T18:11:30.536Z,1.42
2019-02-05T18:14:01.097Z,1.42
2019-02-05T18:16:31.780Z,1.37
2019-02-05T18:19:02.333Z,1.29
2019-02-05T18:21:32.932Z,1.16
2019-02-05T18:24:04.072Z,1.05
2019-02-05T18:26:34.964Z,1.01
2019-02-05T18:29:06.373Z,0.92
2019-02-05T18:31:38.196Z,0.90
2019-02-05T18:34:09.142Z,0.84
2019-02-05T18:36:40.464Z,0.83
2019-02-05T18:39:12.146Z,0.81
2019-02-05T18:41:43.264Z,0.66
2019-02-05T18:44:14.143Z,0.58
2019-02-05T18:46:45.147Z,0.62
2019-02-05T18:49:16.100Z,0.73
2019-02-05T18:51:48.130Z,0.79
2019-02-05T18:54:18.823Z,0.79
2019-02-05T18:56:49.792Z,0.78
2019-02-05T18:59:20.672Z,0.75
2019-02-05T19:01:52.384Z,0.76
2019-02-05T19:04:23.378Z,0.76
2019-02-05T19:06:54.380Z,0.72
2019-02-05T19:09:25.170Z,0.72
2019-02-05T19:11:56.155Z,0.66
2019-02-05T19:14:27.025Z,0.66
2019-02-05T19:16:58.318Z,0.63
2019-02-05T19:19:29.230Z,0.58
2019-02-05T19:21:59.835Z,0.55
2019-02-05T19:24:52.256Z,0.55
2019-02-05T19:27:22.863Z,0.50
2019-02-05T19:29:53.748Z,0.51
2019-02-05T19:32:28.157Z,0.45
2019-02-05T19:34:59.025Z,0.43
2019-02-05T19:37:30.100Z,0.39
2019-02-05T19:40:00.985Z,0.37
2019-02-05T19:42:32.903Z,0.34
2019-02-05T19:45:19.192Z,0.28
2019-02-05T19:47:49.913Z,0.26
2019-02-05T19:50:20.612Z,0.19
2019-02-05T19:52:51.786Z,0.18
2019-02-05T19:55:22.920Z,0.14
2019-02-05T19:57:54.220Z,0.17
2019-02-05T20:00:25.117Z,0.17
2019-02-05T20:02:56.374Z,0.17
2019-02-05T20:05:27.269Z,0.19
2019-02-05T20:07:58.382Z,0.17
2019-02-05T20:10:29.431Z,0.21
2019-02-05T20:13:00.348Z,0.27
2019-02-05T20:15:31.228Z,0.23
2019-02-05T20:18:02.316Z,0.21
2019-02-05T20:20:33.697Z,0.21
2019-02-05T20:23:04.977Z,0.18
2019-02-05T20:25:35.907Z,0.14
2019-02-05T20:28:07.125Z,0.05
2019-02-05T20:30:38.238Z,-0.15
2019-02-05T20:33:10.396Z,-0.23
2019-02-05T20:35:41.377Z,-0.13
2019-02-05T20:38:12.374Z,-0.17
2019-02-05T20:40:43.593Z,-0.22
2019-02-05T20:43:14.674Z,-0.20
2019-02-05T20:46:05.644Z,-0.23
2019-02-05T20:48:36.481Z,-0.22
2019-02-05T20:51:08.048Z,-0.24
2019-02-05T20:53:38.973Z,-0.28
2019-02-05T20:56:09.984Z,-0.25
2019-02-05T20:58:40.976Z,-0.26
2019-02-05T21:01:12.043Z,-0.26
2019-02-05T21:03:42.829Z,-0.35
2019-02-05T21:06:14.076Z,-0.42
2019-02-05T21:08:46.607Z,-0.57
2019-02-05T21:11:19.157Z,-0.56
2019-02-05T21:13:50.269Z,-0.48
2019-02-05T21:16:21.310Z,-0.43
2019-02-05T21:18:52.263Z,-0.32
2019-02-05T21:21:23.242Z,-0.30
2019-02-05T21:23:54.232Z,-0.28
2019-02-05T21:26:25.128Z,-0.24
2019-02-05T21:28:55.898Z,-0.23
2019-02-05T21:31:26.942Z,-0.25
2019-02-05T21:33:57.907Z,-0.32
2019-02-05T21:36:28.893Z,-0.35
2019-02-05T21:38:59.861Z,-0.38
2019-02-05T21:41:32.298Z,-0.36
2019-02-05T21:44:03.273Z,-0.37
2019-02-05T21:46:34.188Z,-0.37
2019-02-05T21:49:06.053Z,-0.35
2019-02-05T21:51:40.938Z,-0.37
2019-02-05T21:54:09.706Z,-0.40
2019-02-05T21:56:41.601Z,-0.43
2019-02-05T21:59:12.504Z,-0.44
2019-02-05T22:01:43.515Z,-0.49
2019-02-05T22:04:26.427Z,-0.54
2019-02-05T22:06:48.116Z,-0.60
2019-02-05T22:09:19.128Z,-0.69
2019-02-05T22:11:50.250Z,-0.70
2019-02-05T22:14:21.209Z,-0.72
2019-02-05T22:16:53.462Z,-0.78
2019-02-05T22:19:25.930Z,-0.77
2019-02-05T22:21:56.838Z,-0.81
2019-02-05T22:24:27.706Z,-0.92
2019-02-05T22:26:58.620Z,-0.96
2019-02-05T22:29:29.497Z,-1.02
2019-02-05T22:32:00.595Z,-1.16
2019-02-05T22:34:38.783Z,-1.18
2019-02-05T22:37:04.124Z,-1.12
2019-02-05T22:39:35.393Z,-1.09
2019-02-05T22:42:07.388Z,-1.09
2019-02-05T22:44:38.198Z,-1.02
2019-02-05T22:47:09.231Z,-1.02
2019-02-05T22:49:40.452Z,-1.00
2019-02-05T22:52:11.592Z,-0.99
2019-02-05T22:54:43.381Z,-0.96
2019-02-05T22:57:14.278Z,-0.93
2019-02-05T22:59:45.457Z,-0.98
2019-02-05T23:02:16.556Z,-1.09
2019-02-05T23:05:36.188Z,-1.13
2019-02-05T23:08:07.823Z,-1.13
2019-02-05T23:11:31.319Z,-1.10
2019-02-05T23:14:02.214Z,-1.12
2019-02-05T23:16:33.079Z,-1.16
2019-02-05T23:19:04.541Z,-1.20
2019-02-05T23:21:35.489Z,-1.24
2019-02-05T23:24:06.583Z,-1.27
2019-02-05T23:26:37.455Z,-1.23
2019-02-05T23:29:08.495Z,-1.30
2019-02-05T23:31:39.447Z,-1.35
2019-02-05T23:34:10.445Z,-1.32
2019-02-05T23:36:41.614Z,-1.29
2019-02-05T23:39:13.713Z,-1.31
2019-02-05T23:41:44.627Z,-1.32
2019-02-05T23:44:15.690Z,-1.33
2019-02-05T23:46:46.512Z,-1.34
2019-02-05T23:49:17.978Z,-1.39
2019-02-05T23:51:48.902Z,-1.43
2019-02-05T23:54:19.792Z,-1.35
2019-02-05T23:56:50.657Z,-1.35
2019-02-05T23:59:21.657Z,-1.33
